Time;durP1;ratioP1;P1;durP2;ratioP2;P2;SDS_P1;SDS_P2;PMS_P1;PMS_P2;Temp;Humidity;BMP_temperature;BMP_pressure;BME280_temperature;BME280_humidity;BME280_pressure;Samples;Min_cycle;Max_cycle;Signal;HPM_P1;HPM_P2
2022/12/24 00:02:10;;;;;;;5.83;3.20;;;6.00;99.90;;;;;;5094353;28;20192;-89
2022/12/24 00:04:36;;;;;;;3.83;2.80;;;6.00;99.90;;;;;;5095323;28;20192;-89
2022/12/24 00:07:03;;;;;;;6.13;2.83;;;6.00;99.90;;;;;;5094189;28;20181;-89
2022/12/24 00:09:29;;;;;;;4.47;2.90;;;5.90;99.90;;;;;;5093616;28;20186;-89
2022/12/24 00:11:55;;;;;;;3.67;2.87;;;6.00;99.90;;;;;;5093823;28;20186;-89
2022/12/24 00:14:21;;;;;;;3.40;2.90;;;5.90;99.90;;;;;;5094111;28;21040;-88
2022/12/24 00:16:46;;;;;;;5.50;4.00;;;5.90;99.90;;;;;;5093903;28;20213;-89
2022/12/24 00:19:12;;;;;;;5.30;3.13;;;5.90;99.90;;;;;;5094180;28;20184;-89
2022/12/24 00:21:38;;;;;;;4.70;2.90;;;5.90;99.90;;;;;;5093926;28;20674;-89
2022/12/24 00:24:04;;;;;;;4.43;3.10;;;5.90;99.90;;;;;;5093807;28;20231;-89
2022/12/24 00:26:34;;;;;;;3.60;2.63;;;5.90;99.90;;;;;;5094031;28;20271;-89
2022/12/24 00:29:00;;;;;;;4.50;2.87;;;5.90;99.90;;;;;;5093709;28;20187;-91
2022/12/24 00:31:26;;;;;;;7.80;4.50;;;5.90;99.90;;;;;;5094746;28;20156;-89
2022/12/24 00:33:53;;;;;;;5.07;3.73;;;5.90;99.90;;;;;;5093131;28;20197;-91
2022/12/24 00:36:19;;;;;;;4.83;3.70;;;5.90;99.90;;;;;;5093367;28;20161;-89
2022/12/24 00:38:46;;;;;;;5.97;4.10;;;5.90;99.90;;;;;;5094287;28;20665;-89
2022/12/24 00:41:27;;;;;;;4.93;3.60;;;5.90;99.90;;;;;;5093432;28;20168;-89
2022/12/24 00:44:04;;;;;;;5.67;3.90;;;5.90;99.90;;;;;;5092952;28;20287;-89
2022/12/24 00:46:32;;;;;;;5.67;3.73;;;5.90;99.90;;;;;;5093306;28;20175;-89
2022/12/24 00:48:57;;;;;;;5.33;3.50;;;5.90;99.90;;;;;;5093099;28;20164;-89
2022/12/24 00:51:24;;;;;;;4.37;3.43;;;5.90;99.90;;;;;;5093098;28;20256;-89
2022/12/24 00:53:51;;;;;;;5.63;3.40;;;5.90;99.90;;;;;;5092635;28;20197;-89
2022/12/24 00:56:17;;;;;;;4.53;3.67;;;5.90;99.90;;;;;;5092642;28;20168;-89
2022/12/24 00:58:44;;;;;;;6.80;4.07;;;5.90;99.90;;;;;;5092989;28;20215;-89
2022/12/24 01:01:10;;;;;;;5.93;3.37;;;5.90;99.90;;;;;;5094331;28;20164;-90
2022/12/24 01:03:36;;;;;;;4.43;3.30;;;5.90;99.90;;;;;;5092923;28;20207;-89
2022/12/24 01:06:05;;;;;;;5.20;3.53;;;5.90;99.90;;;;;;5093805;28;20169;-89
2022/12/24 01:08:31;;;;;;;6.93;3.97;;;5.80;99.90;;;;;;5092725;28;20215;-89
2022/12/24 01:10:57;;;;;;;5.57;3.63;;;5.90;99.90;;;;;;5092790;28;20204;-89
2022/12/24 01:13:24;;;;;;;5.93;3.70;;;5.90;99.90;;;;;;5092839;28;20293;-89
2022/12/24 01:15:50;;;;;;;6.70;3.53;;;5.90;99.90;;;;;;5092717;28;20173;-90
2022/12/24 01:18:16;;;;;;;5.50;4.00;;;5.90;99.90;;;;;;5092632;28;20778;-90
2022/12/24 01:20:42;;;;;;;5.07;3.43;;;5.90;99.90;;;;;;5092590;28;20172;-89
2022/12/24 01:23:08;;;;;;;5.03;3.87;;;5.90;99.90;;;;;;5092260;28;20222;-89
2022/12/24 01:25:33;;;;;;;4.37;3.30;;;5.90;99.90;;;;;;5092703;28;20172;-89
2022/12/24 01:27:59;;;;;;;5.20;3.90;;;5.90;99.90;;;;;;5091917;28;20168;-90
2022/12/24 01:30:25;;;;;;;5.30;3.70;;;5.90;99.90;;;;;;5092223;28;20624;-89
2022/12/24 01:32:51;;;;;;;5.23;3.77;;;5.90;99.90;;;;;;5093665;28;20507;-89
2022/12/24 01:35:20;;;;;;;5.87;3.70;;;5.90;99.90;;;;;;5092152;28;20201;-89
2022/12/24 01:37:46;;;;;;;5.70;3.90;;;5.90;99.90;;;;;;5092219;28;20212;-90
2022/12/24 01:45:49;;;;;;;5.17;3.43;;;5.90;99.90;;;;;;5093972;28;20257;-90
2022/12/24 01:48:47;;;;;;;6.30;3.90;;;5.90;99.90;;;;;;5092520;28;20184;-90
2022/12/24 01:51:18;;;;;;;4.87;3.33;;;5.90;99.90;;;;;;5092506;28;20200;-90
2022/12/24 01:53:50;;;;;;;5.50;3.93;;;5.90;99.90;;;;;;5092316;28;20656;-90
2022/12/24 01:56:18;;;;;;;5.90;3.90;;;5.90;99.90;;;;;;5092339;28;20176;-89
2022/12/24 01:58:49;;;;;;;5.90;4.13;;;5.90;99.90;;;;;;5092329;28;20204;-89
2022/12/24 02:01:16;;;;;;;5.40;3.77;;;5.90;99.90;;;;;;5092246;28;20207;-90
2022/12/24 02:03:43;;;;;;;6.57;3.73;;;5.90;99.90;;;;;;5092274;28;20672;-89
2022/12/24 02:06:14;;;;;;;6.43;3.43;;;5.80;99.90;;;;;;5092210;28;20180;-89
2022/12/24 02:08:40;;;;;;;5.33;3.10;;;5.90;99.90;;;;;;5092067;28;20199;-90
2022/12/24 02:11:14;;;;;;;6.80;3.83;;;5.90;99.90;;;;;;5092228;28;20176;-89
2022/12/24 02:13:54;;;;;;;5.63;3.30;;;5.90;99.90;;;;;;5092203;28;20273;-89
2022/12/24 02:16:47;;;;;;;4.77;3.57;;;5.90;99.90;;;;;;5092194;28;20173;-90
2022/12/24 02:22:07;;;;;;;4.17;3.17;;;5.90;99.90;;;;;;5546161;22;20288;-92
2022/12/24 02:24:57;;;;;;;5.47;3.83;;;5.90;99.90;;;;;;5033448;28;20182;-90
2022/12/24 02:27:44;;;;;;;4.10;3.07;;;5.90;99.90;;;;;;5034548;28;20657;-89
2022/12/24 02:30:14;;;;;;;5.37;3.40;;;5.90;99.90;;;;;;5033281;28;20250;-89
2022/12/24 02:33:01;;;;;;;4.00;3.20;;;5.90;99.90;;;;;;5050245;28;20174;-88
2022/12/24 02:35:40;;;;;;;4.23;3.40;;;5.90;99.90;;;;;;5033674;28;20525;-89
2022/12/24 02:38:30;;;;;;;3.70;2.97;;;5.90;99.90;;;;;;5049624;28;20207;-89
2022/12/24 02:41:12;;;;;;;6.47;3.20;;;5.90;99.90;;;;;;5038086;28;20220;-90
2022/12/24 02:43:41;;;;;;;4.33;2.93;;;5.90;99.90;;;;;;5053559;28;20174;-89
2022/12/24 02:46:20;;;;;;;4.33;3.00;;;5.90;99.90;;;;;;5053661;28;20228;-88
2022/12/24 02:48:48;;;;;;;4.63;2.97;;;5.90;99.90;;;;;;5053798;28;20609;-93
2022/12/24 02:51:15;;;;;;;4.13;3.03;;;5.90;99.90;;;;;;5057466;28;20196;-88
2022/12/24 02:53:41;;;;;;;4.73;2.90;;;5.90;99.90;;;;;;5056875;28;20189;-92
2022/12/24 02:56:13;;;;;;;4.53;3.03;;;5.90;99.90;;;;;;5057114;28;20601;-89
2022/12/24 02:58:44;;;;;;;4.67;3.27;;;5.90;99.90;;;;;;5056809;28;20210;-88
2022/12/24 03:01:38;;;;;;;4.10;2.80;;;5.90;99.90;;;;;;5057069;28;20174;-89
2022/12/24 03:04:41;;;;;;;4.87;3.43;;;5.90;99.90;;;;;;5056621;28;20269;-89
2022/12/24 03:07:17;;;;;;;3.60;2.87;;;5.90;99.90;;;;;;5057647;28;20612;-88
2022/12/24 03:10:10;;;;;;;5.20;3.40;;;5.90;99.90;;;;;;5056955;28;20165;-90
2022/12/24 03:12:47;;;;;;;3.53;2.80;;;5.90;99.90;;;;;;5056507;28;20715;-90
2022/12/24 03:15:16;;;;;;;3.97;2.80;;;5.90;99.90;;;;;;5056823;28;20605;-86
2022/12/24 03:17:46;;;;;;;4.23;2.60;;;5.90;99.90;;;;;;5057319;28;20209;-86
2022/12/24 03:20:18;;;;;;;5.60;3.17;;;5.90;99.90;;;;;;5056817;28;20200;-87
2022/12/24 03:22:45;;;;;;;3.67;2.77;;;5.90;99.90;;;;;;5057337;28;20264;-88
2022/12/24 03:25:10;;;;;;;3.50;2.83;;;5.90;99.90;;;;;;5057617;28;20162;-91
2022/12/24 03:27:37;;;;;;;3.40;2.53;;;5.90;99.90;;;;;;5056074;28;20228;-87
2022/12/24 03:30:09;;;;;;;5.00;2.70;;;5.90;99.90;;;;;;5057085;28;20236;-86
2022/12/24 03:32:36;;;;;;;4.43;2.90;;;5.90;99.90;;;;;;5057149;28;20207;-87
2022/12/24 03:35:02;;;;;;;5.03;3.10;;;5.90;99.90;;;;;;5055797;28;20569;-87
2022/12/24 03:37:28;;;;;;;4.63;2.73;;;5.90;99.90;;;;;;5055383;28;20236;-87
2022/12/24 03:39:53;;;;;;;4.30;2.77;;;5.90;99.90;;;;;;5055767;28;20612;-87
2022/12/24 03:42:19;;;;;;;3.70;2.80;;;5.90;99.90;;;;;;5057013;28;20523;-86
2022/12/24 03:44:46;;;;;;;3.93;2.97;;;5.90;99.90;;;;;;5056635;28;20178;-87
2022/12/24 03:47:12;;;;;;;4.73;2.97;;;5.90;99.90;;;;;;5055811;28;20257;-87
2022/12/24 03:49:37;;;;;;;3.70;2.90;;;5.90;99.90;;;;;;5055520;28;20209;-86
2022/12/24 03:52:03;;;;;;;3.83;2.60;;;5.90;99.90;;;;;;5055032;28;20189;-86
2022/12/24 03:54:29;;;;;;;3.73;2.63;;;5.90;99.90;;;;;;5056734;28;20178;-87
2022/12/24 03:56:55;;;;;;;3.53;2.60;;;5.90;99.90;;;;;;5055243;28;20587;-86
2022/12/24 03:59:20;;;;;;;3.50;2.50;;;5.90;99.90;;;;;;5055075;28;20583;-91
2022/12/24 04:01:46;;;;;;;5.30;2.30;;;5.90;99.90;;;;;;5055445;28;20268;-89
2022/12/24 04:04:12;;;;;;;3.93;2.40;;;5.90;99.90;;;;;;5055220;28;20607;-86
2022/12/24 04:06:38;;;;;;;3.23;2.37;;;5.90;99.90;;;;;;5055144;28;20166;-87
2022/12/24 04:09:04;;;;;;;3.30;2.37;;;5.90;99.90;;;;;;5072088;28;20628;-87
2022/12/24 04:11:30;;;;;;;4.57;2.30;;;5.90;99.90;;;;;;5055061;28;20612;-87
2022/12/24 04:13:57;;;;;;;2.70;2.20;;;6.00;99.90;;;;;;5054778;28;20182;-88
2022/12/24 04:16:22;;;;;;;2.87;2.57;;;5.90;99.90;;;;;;5055043;28;20174;-86
2022/12/24 04:18:48;;;;;;;3.50;2.40;;;6.00;99.90;;;;;;5070743;28;20639;-86
2022/12/24 04:21:14;;;;;;;3.30;2.53;;;6.00;99.90;;;;;;5055016;28;20233;-86
2022/12/24 04:23:41;;;;;;;3.50;2.30;;;6.00;99.90;;;;;;5054966;28;20502;-87
2022/12/24 04:26:09;;;;;;;2.70;1.97;;;6.00;99.90;;;;;;5055986;28;20165;-87
2022/12/24 04:28:36;;;;;;;2.60;2.10;;;6.00;99.90;;;;;;5054732;28;20177;-86
2022/12/24 04:31:05;;;;;;;2.57;2.07;;;6.00;99.90;;;;;;5054814;28;20178;-87
2022/12/24 04:33:39;;;;;;;2.80;1.90;;;6.00;99.90;;;;;;5054373;28;20178;-89
2022/12/24 04:36:06;;;;;;;3.53;2.40;;;6.10;99.90;;;;;;5056048;28;20170;-86
2022/12/24 04:38:32;;;;;;;5.13;2.63;;;6.10;99.90;;;;;;5054573;28;20209;-87
2022/12/24 04:41:18;;;;;;;3.30;2.50;;;6.10;99.90;;;;;;5054673;28;20533;-87
2022/12/24 04:43:44;;;;;;;10.07;4.00;;;6.10;99.90;;;;;;5055481;28;20174;-86
2022/12/24 04:46:17;;;;;;;6.43;3.67;;;6.10;99.90;;;;;;5054676;28;20240;-86
2022/12/24 04:48:43;;;;;;;5.23;3.40;;;6.20;99.90;;;;;;5054103;28;20637;-86
2022/12/24 04:51:10;;;;;;;4.30;2.50;;;6.20;99.90;;;;;;5054235;28;20232;-87
2022/12/24 04:53:38;;;;;;;6.47;3.50;;;6.20;99.90;;;;;;5054121;28;20650;-87
2022/12/24 04:56:17;;;;;;;4.77;3.07;;;6.20;99.90;;;;;;5054551;28;20181;-87
2022/12/24 04:58:43;;;;;;;7.97;2.80;;;6.20;99.90;;;;;;5054217;28;20212;-87
2022/12/24 05:01:13;;;;;;;6.70;3.43;;;6.10;99.90;;;;;;5054048;28;20217;-86
2022/12/24 05:03:40;;;;;;;3.97;2.93;;;6.20;99.90;;;;;;5053494;28;20212;-88
2022/12/24 05:06:09;;;;;;;4.80;2.77;;;6.10;99.90;;;;;;5054636;28;20176;-94
2022/12/24 05:08:35;;;;;;;4.17;2.90;;;6.10;99.90;;;;;;5055366;28;20213;-94
2022/12/24 05:11:01;;;;;;;4.53;3.20;;;6.10;99.90;;;;;;5054724;28;20178;-92
2022/12/24 05:13:42;;;;;;;4.33;2.80;;;6.10;99.90;;;;;;5054784;28;20186;-94
2022/12/24 05:16:09;;;;;;;3.57;2.10;;;6.30;99.90;;;;;;5054713;28;20174;-90
2022/12/24 05:18:36;;;;;;;2.83;1.90;;;6.90;99.90;;;;;;5054376;28;20704;-95
2022/12/24 05:21:02;;;;;;;2.50;1.67;;;7.20;99.90;;;;;;5054398;28;20283;-93
2022/12/24 05:26:21;;;;;;;2.63;1.27;;;7.50;99.90;;;;;;5055859;28;20495;-93
2022/12/24 05:28:51;;;;;;;1.83;1.40;;;7.50;99.90;;;;;;5054439;28;20192;-92
2022/12/24 05:31:17;;;;;;;1.47;1.30;;;7.60;99.90;;;;;;5054329;28;20186;-93
2022/12/24 05:33:43;;;;;;;3.40;1.30;;;7.70;99.90;;;;;;5054031;28;20174;-87
2022/12/24 05:36:09;;;;;;;4.20;1.30;;;7.60;99.90;;;;;;5054213;28;20556;-88
2022/12/24 05:38:35;;;;;;;2.63;1.40;;;7.60;99.90;;;;;;5054165;28;20240;-87
2022/12/24 05:41:00;;;;;;;1.83;1.30;;;7.70;99.90;;;;;;5054310;28;20624;-89
2022/12/24 05:43:27;;;;;;;1.97;1.50;;;7.60;99.90;;;;;;5054061;28;20182;-93
2022/12/24 05:46:00;;;;;;;2.37;1.57;;;7.60;99.90;;;;;;5054556;28;20170;-94
2022/12/24 05:48:27;;;;;;;2.30;1.50;;;7.60;99.90;;;;;;5054565;28;20208;-93
2022/12/24 05:50:53;;;;;;;2.50;1.60;;;7.70;99.90;;;;;;5054438;28;20178;-93
2022/12/24 05:53:19;;;;;;;4.37;1.93;;;7.70;99.90;;;;;;5053720;28;20235;-94
2022/12/24 05:55:45;;;;;;;3.73;1.57;;;7.70;99.90;;;;;;5053982;28;20280;-93
2022/12/24 05:58:11;;;;;;;6.23;2.30;;;7.70;99.90;;;;;;5053720;28;20357;-93
2022/12/24 06:00:36;;;;;;;8.70;2.27;;;7.60;99.90;;;;;;5070364;28;20189;-91
2022/12/24 06:03:02;;;;;;;7.90;2.37;;;7.60;99.90;;;;;;5053120;28;20177;-87
2022/12/24 06:05:29;;;;;;;11.43;2.27;;;7.60;99.90;;;;;;5053429;28;20206;-88
2022/12/24 06:07:55;;;;;;;5.27;2.50;;;7.70;99.90;;;;;;5054787;28;20166;-87
2022/12/24 06:10:21;;;;;;;6.13;2.43;;;7.60;99.90;;;;;;5053613;28;20188;-87
2022/12/24 06:12:46;;;;;;;6.20;2.70;;;7.60;99.90;;;;;;5053263;28;20185;-88
2022/12/24 06:15:13;;;;;;;11.47;3.00;;;7.60;99.90;;;;;;5057444;28;20177;-87
2022/12/24 06:17:39;;;;;;;5.07;2.30;;;7.50;99.90;;;;;;5057368;28;20355;-87
2022/12/24 06:20:05;;;;;;;9.30;2.70;;;7.50;99.90;;;;;;5057870;28;20630;-87
2022/12/24 06:22:31;;;;;;;14.37;3.47;;;7.60;99.90;;;;;;5057379;28;20225;-89
2022/12/24 06:24:57;;;;;;;8.63;2.50;;;7.60;99.90;;;;;;5058501;28;20178;-86
2022/12/24 06:27:23;;;;;;;8.63;2.57;;;7.60;99.90;;;;;;5074180;28;20264;-88
2022/12/24 06:29:49;;;;;;;16.20;2.83;;;7.50;99.90;;;;;;5058764;28;20251;-87
2022/12/24 06:32:14;;;;;;;13.37;2.90;;;7.60;99.90;;;;;;5057344;28;20608;-87
2022/12/24 06:34:41;;;;;;;15.17;3.10;;;7.60;99.90;;;;;;5058420;28;20212;-90
2022/12/24 06:37:07;;;;;;;21.43;3.87;;;7.60;99.90;;;;;;5058096;28;20205;-93
2022/12/24 06:39:33;;;;;;;10.00;2.87;;;7.70;99.90;;;;;;5075081;28;20181;-93
2022/12/24 06:41:59;;;;;;;14.53;2.70;;;7.70;99.90;;;;;;5057958;28;20205;-93
2022/12/24 06:44:26;;;;;;;18.03;2.70;;;7.80;99.90;;;;;;5057851;28;20205;-92
2022/12/24 06:46:52;;;;;;;19.27;3.23;;;7.70;99.90;;;;;;5058833;28;20196;-92
2022/12/24 06:49:18;;;;;;;16.87;3.53;;;7.80;99.90;;;;;;5057327;28;20189;-92
2022/12/24 06:51:43;;;;;;;21.80;3.67;;;7.80;99.90;;;;;;5057398;28;20669;-91
2022/12/24 06:54:10;;;;;;;18.37;3.40;;;7.90;99.90;;;;;;5057341;28;20182;-93
2022/12/24 06:56:36;;;;;;;22.13;3.20;;;7.90;99.90;;;;;;5062483;28;20609;-93
2022/12/24 06:59:01;;;;;;;12.13;2.87;;;8.00;99.90;;;;;;5077846;28;20220;-93
2022/12/24 07:01:27;;;;;;;17.43;4.00;;;8.10;99.90;;;;;;5077169;28;20173;-93
2022/12/24 07:03:53;;;;;;;19.93;3.70;;;8.10;99.90;;;;;;5077029;28;20185;-90
2022/12/24 07:06:27;;;;;;;23.47;4.17;;;8.10;99.90;;;;;;5077742;28;20192;-92
2022/12/24 07:08:53;;;;;;;21.63;3.77;;;8.10;99.90;;;;;;5077717;28;20177;-93
2022/12/24 07:11:19;;;;;;;18.50;3.13;;;8.10;99.90;;;;;;5077445;28;20185;-93
2022/12/24 07:13:46;;;;;;;23.93;3.70;;;8.00;99.90;;;;;;5077662;28;20181;-94
2022/12/24 07:16:13;;;;;;;24.47;3.43;;;8.00;99.90;;;;;;5077291;28;20201;-95
2022/12/24 07:18:38;;;;;;;23.70;3.60;;;8.10;99.90;;;;;;5063605;28;20750;-94
2022/12/24 07:21:05;;;;;;;16.53;3.90;;;8.10;99.90;;;;;;5057179;28;20217;-93
2022/12/24 07:23:31;;;;;;;26.97;3.80;;;8.10;99.90;;;;;;5057004;28;20189;-89
2022/12/24 07:26:02;;;;;;;17.02;3.47;;;8.10;99.90;;;;;;5055773;28;20268;-91
2022/12/24 07:28:28;;;;;;;17.90;3.13;;;8.00;99.90;;;;;;5055381;28;20617;-88
2022/12/24 07:30:58;;;;;;;22.90;3.80;;;8.00;99.90;;;;;;5055740;28;20190;-91
2022/12/24 07:33:25;;;;;;;20.00;4.33;;;8.00;99.90;;;;;;5056090;28;20232;-86
2022/12/24 07:36:07;;;;;;;18.57;3.70;;;8.00;99.90;;;;;;5056161;28;20185;-88
2022/12/24 07:38:34;;;;;;;25.87;4.43;;;8.00;99.90;;;;;;5057514;28;20201;-89
2022/12/24 07:41:00;;;;;;;21.03;3.93;;;7.90;99.90;;;;;;5056546;28;20189;-92
2022/12/24 07:43:27;;;;;;;25.43;4.17;;;8.00;99.90;;;;;;5055376;28;20213;-88
2022/12/24 07:45:57;;;;;;;19.37;3.77;;;8.00;99.90;;;;;;5056736;28;20604;-89
2022/12/24 07:48:23;;;;;;;18.07;3.73;;;8.10;99.90;;;;;;5057496;28;20197;-88
2022/12/24 07:50:51;;;;;;;20.00;4.10;;;8.00;99.90;;;;;;5056643;28;20566;-91
2022/12/24 07:53:16;;;;;;;19.97;4.17;;;8.00;99.90;;;;;;5056413;28;20530;-88
2022/12/24 07:55:43;;;;;;;21.83;3.70;;;8.00;99.90;;;;;;5056374;28;20186;-88
2022/12/24 07:58:09;;;;;;;26.17;4.60;;;8.00;99.90;;;;;;5056243;28;20229;-89
2022/12/24 08:00:35;;;;;;;21.17;4.37;;;7.90;99.90;;;;;;5056392;28;20205;-91
2022/12/24 08:03:01;;;;;;;29.70;4.50;;;8.00;99.90;;;;;;5056056;28;20219;-87
2022/12/24 08:05:39;;;;;;;29.83;5.37;;;8.10;99.90;;;;;;5055941;28;20186;-88
2022/12/24 08:08:04;;;;;;;40.00;5.13;;;8.00;99.90;;;;;;5056001;28;20173;-92
2022/12/24 08:10:30;;;;;;;24.57;4.13;;;8.10;99.90;;;;;;5055837;28;20227;-91
2022/12/24 08:12:56;;;;;;;28.40;4.53;;;8.10;99.90;;;;;;5055597;28;20182;-90
2022/12/24 08:15:23;;;;;;;23.77;4.30;;;8.10;99.90;;;;;;5055663;28;20177;-89
2022/12/24 08:17:48;;;;;;;28.33;4.03;;;8.10;99.90;;;;;;5055628;28;20671;-88
2022/12/24 08:20:16;;;;;;;23.37;3.73;;;8.10;99.90;;;;;;5055460;28;20181;-91
2022/12/24 08:22:42;;;;;;;19.87;4.33;;;8.00;99.90;;;;;;5055124;28;20749;-89
2022/12/24 08:25:09;;;;;;;35.23;5.83;;;8.00;99.90;;;;;;5055273;28;20266;-88
2022/12/24 08:27:35;;;;;;;21.57;4.20;;;8.00;99.90;;;;;;5055112;28;20620;-89
2022/12/24 08:30:01;;;;;;;23.27;4.03;;;8.00;99.90;;;;;;5055306;28;20185;-91
2022/12/24 08:32:27;;;;;;;35.67;4.37;;;8.00;99.90;;;;;;5055231;28;20185;-88
2022/12/24 08:35:00;;;;;;;34.20;4.53;;;8.00;99.90;;;;;;5055122;28;20181;-89
2022/12/24 08:37:26;;;;;;;30.10;4.60;;;8.00;99.90;;;;;;5053978;28;20205;-88
2022/12/24 08:39:51;;;;;;;19.57;3.83;;;8.00;99.90;;;;;;5056249;28;20220;-88
2022/12/24 08:42:17;;;;;;;23.50;4.13;;;8.00;99.90;;;;;;5055040;28;20177;-89
2022/12/24 08:44:43;;;;;;;17.83;3.50;;;8.00;99.90;;;;;;5054444;28;20252;-86
2022/12/24 08:47:08;;;;;;;20.93;4.20;;;8.00;99.90;;;;;;5054910;28;20181;-90
2022/12/24 08:49:34;;;;;;;21.73;3.60;;;8.00;99.90;;;;;;5055030;28;20189;-91
2022/12/24 08:52:00;;;;;;;20.67;3.93;;;8.00;99.90;;;;;;5054956;28;20272;-90
2022/12/24 08:54:26;;;;;;;23.60;4.10;;;8.00;99.90;;;;;;5054848;28;20182;-89
2022/12/24 08:56:53;;;;;;;18.33;3.63;;;8.00;99.90;;;;;;5054640;28;20549;-88
2022/12/24 08:59:19;;;;;;;22.80;3.50;;;8.00;99.90;;;;;;5054018;28;20193;-90
2022/12/24 09:01:45;;;;;;;26.87;3.50;;;8.00;99.90;;;;;;5054639;28;20635;-91
2022/12/24 09:04:11;;;;;;;16.13;4.10;;;8.10;99.90;;;;;;5054321;28;20196;-90
2022/12/24 09:06:37;;;;;;;25.17;4.30;;;8.10;99.90;;;;;;5054701;28;20182;-89
2022/12/24 09:09:04;;;;;;;20.53;3.60;;;8.20;99.90;;;;;;5054834;28;20518;-91
2022/12/24 09:11:29;;;;;;;19.07;3.90;;;8.20;99.90;;;;;;5054766;28;20205;-90
2022/12/24 09:13:55;;;;;;;23.67;4.03;;;8.30;99.90;;;;;;5054357;28;20610;-94
2022/12/24 09:16:24;;;;;;;19.37;3.93;;;8.30;99.90;;;;;;5054382;28;20182;-90
2022/12/24 09:18:50;;;;;;;28.70;4.07;;;8.30;99.90;;;;;;5054273;28;20293;-92
2022/12/24 09:21:17;;;;;;;26.00;3.90;;;8.30;99.90;;;;;;5054257;28;20253;-90
2022/12/24 09:23:46;;;;;;;27.63;4.37;;;8.30;99.90;;;;;;5053292;28;20186;-91
2022/12/24 09:26:21;;;;;;;17.90;3.73;;;8.30;99.90;;;;;;5054437;28;20170;-89
2022/12/24 09:28:47;;;;;;;24.17;4.13;;;8.30;99.90;;;;;;5054072;28;20215;-89
2022/12/24 09:31:13;;;;;;;22.00;3.70;;;8.30;99.90;;;;;;5053759;28;20264;-89
2022/12/24 09:33:41;;;;;;;27.40;4.30;;;8.30;99.90;;;;;;5053808;28;20186;-88
2022/12/24 09:36:08;;;;;;;15.10;3.57;;;8.30;99.90;;;;;;5054252;28;20174;-89
2022/12/24 09:38:35;;;;;;;26.67;5.00;;;8.30;99.90;;;;;;5053966;28;20224;-89
2022/12/24 09:41:09;;;;;;;22.33;4.57;;;8.30;99.90;;;;;;5055203;28;20509;-89
2022/12/24 09:43:37;;;;;;;23.10;3.87;;;8.30;99.90;;;;;;5053747;28;20604;-88
2022/12/24 09:46:18;;;;;;;32.60;4.93;;;8.30;99.90;;;;;;5054008;28;20617;-89
2022/12/24 09:48:51;;;;;;;19.80;4.30;;;8.20;99.90;;;;;;5053967;28;20266;-90
2022/12/24 09:51:40;;;;;;;22.40;4.80;;;8.20;99.90;;;;;;5054254;28;20268;-90
2022/12/24 09:54:11;;;;;;;27.50;4.67;;;8.20;99.90;;;;;;5053959;28;20528;-89
2022/12/24 09:56:44;;;;;;;22.90;4.53;;;8.30;99.90;;;;;;5053997;28;20173;-90
2022/12/24 09:59:15;;;;;;;28.37;4.47;;;8.30;99.90;;;;;;5054030;28;20221;-89
2022/12/24 10:01:41;;;;;;;14.20;3.57;;;8.20;99.90;;;;;;5053854;28;20174;-90
2022/12/24 10:04:14;;;;;;;19.93;4.93;;;8.30;99.90;;;;;;5053754;28;20186;-87
2022/12/24 10:06:52;;;;;;;16.42;3.78;;;8.30;99.90;;;;;;5053783;28;20181;-89
2022/12/24 10:09:21;;;;;;;30.97;4.47;;;8.40;99.90;;;;;;5053870;28;20198;-88
2022/12/24 10:12:13;;;;;;;24.10;4.97;;;8.50;99.90;;;;;;5054830;28;20249;-89
2022/12/24 10:15:21;;;;;;;20.07;4.03;;;8.60;99.90;;;;;;5053504;28;20162;-89
2022/12/24 10:17:49;;;;;;;21.40;4.83;;;8.60;99.90;;;;;;5038267;28;20212;-89
2022/12/24 10:20:36;;;;;;;19.00;4.07;;;8.60;99.90;;;;;;5033809;28;20213;-90
2022/12/24 10:23:57;;;;;;;26.87;5.73;;;8.60;99.90;;;;;;5033468;28;20237;-90
2022/12/24 10:26:32;;;;;;;31.33;5.32;;;8.60;99.90;;;;;;5028127;28;20187;-89
2022/12/24 10:29:29;;;;;;;19.40;4.60;;;8.60;99.90;;;;;;5034789;28;20162;-89
2022/12/24 10:32:06;;;;;;;27.53;5.13;;;8.50;99.90;;;;;;5032775;28;20293;-90
2022/12/24 10:34:40;;;;;;;24.53;4.90;;;8.60;99.90;;;;;;5033366;28;20167;-90
2022/12/24 10:37:16;;;;;;;18.90;4.87;;;8.50;99.90;;;;;;5033680;28;20197;-91
2022/12/24 10:39:42;;;;;;;20.83;5.55;;;8.60;99.90;;;;;;5033648;28;20265;-88
2022/12/24 10:42:10;;;;;;;25.57;4.97;;;8.60;99.90;;;;;;5033555;28;20170;-88
2022/12/24 10:44:36;;;;;;;29.70;5.82;;;8.70;99.90;;;;;;5033509;28;20609;-88
2022/12/24 10:47:08;;;;;;;27.80;5.43;;;8.70;99.90;;;;;;5033411;28;20177;-88
2022/12/24 10:49:53;;;;;;;31.33;5.90;;;8.70;99.90;;;;;;5052906;28;20221;-89
2022/12/24 10:52:23;;;;;;;26.77;6.35;;;8.70;99.90;;;;;;5053103;28;20193;-89
2022/12/24 10:55:10;;;;;;;34.03;5.78;;;8.80;99.90;;;;;;5053203;28;20289;-91
2022/12/24 10:57:39;;;;;;;22.63;6.07;;;8.90;99.90;;;;;;5053149;28;20530;-91
2022/12/24 11:00:14;;;;;;;24.10;5.78;;;8.90;99.90;;;;;;5053732;28;20178;-87
2022/12/24 11:02:47;;;;;;;23.25;6.40;;;9.00;99.90;;;;;;5056645;28;20252;-89
2022/12/24 11:05:32;;;;;;;32.40;6.57;;;9.00;99.90;;;;;;5056540;28;20209;-89
2022/12/24 11:08:03;;;;;;;29.97;7.00;;;9.10;99.90;;;;;;5057895;28;20169;-89
2022/12/24 11:10:30;;;;;;;23.63;6.03;;;9.10;99.90;;;;;;5057822;28;20172;-88
2022/12/24 11:12:56;;;;;;;28.77;6.20;;;9.20;99.90;;;;;;5056916;28;20181;-89
2022/12/24 11:15:28;;;;;;;26.58;6.22;;;9.30;99.90;;;;;;5056488;28;20177;-87
2022/12/24 11:18:04;;;;;;;29.83;6.63;;;9.30;99.90;;;;;;5056496;28;20618;-88
2022/12/24 11:20:33;;;;;;;23.48;6.38;;;9.40;99.90;;;;;;5056522;28;20256;-89
2022/12/24 11:23:01;;;;;;;30.92;7.35;;;9.30;99.90;;;;;;5056187;28;20233;-87
2022/12/24 11:25:30;;;;;;;21.35;6.03;;;9.30;99.90;;;;;;5056433;28;20265;-89
2022/12/24 11:28:26;;;;;;;26.77;6.32;;;9.30;99.90;;;;;;5056460;28;20178;-89
2022/12/24 11:31:16;;;;;;;32.25;7.57;;;9.20;99.90;;;;;;5056385;28;20177;-87
2022/12/24 11:33:51;;;;;;;33.25;6.20;;;9.20;99.90;;;;;;5055630;28;20608;-88
2022/12/24 11:36:22;;;;;;;28.48;6.57;;;9.20;99.90;;;;;;5057532;28;20240;-89
2022/12/24 11:38:56;;;;;;;27.23;6.75;;;9.10;99.90;;;;;;5056108;28;20367;-89
2022/12/24 11:41:23;;;;;;;23.90;5.90;;;9.10;99.90;;;;;;5056093;28;20172;-89
2022/12/24 11:44:02;;;;;;;23.25;5.80;;;9.10;99.90;;;;;;5055804;28;20178;-88
2022/12/24 11:46:43;;;;;;;24.45;6.35;;;9.10;99.90;;;;;;5056441;28;20604;-88
2022/12/24 11:49:20;;;;;;;25.33;6.85;;;9.10;99.90;;;;;;5055670;28;20534;-87
2022/12/24 11:52:09;;;;;;;26.27;6.10;;;9.00;99.90;;;;;;5057123;28;20158;-88
2022/12/24 11:55:19;;;;;;;22.92;5.82;;;9.00;99.90;;;;;;5046520;28;20273;-88
2022/12/24 11:58:10;;;;;;;21.90;5.72;;;9.10;99.90;;;;;;5055401;28;20229;-88
2022/12/24 12:00:38;;;;;;;19.90;6.00;;;9.10;99.90;;;;;;5055925;28;20174;-87
2022/12/24 12:03:35;;;;;;;26.17;5.60;;;9.10;99.90;;;;;;5055552;28;20570;-89
2022/12/24 12:06:06;;;;;;;21.40;5.25;;;9.00;99.90;;;;;;5032673;28;20178;-88
2022/12/24 12:08:37;;;;;;;21.95;5.65;;;9.00;99.90;;;;;;5055635;28;20176;-88
2022/12/24 12:11:11;;;;;;;23.77;5.53;;;9.10;99.90;;;;;;5055365;28;20307;-88
2022/12/24 12:13:39;;;;;;;23.10;6.03;;;9.00;99.90;;;;;;5055570;28;20201;-88
2022/12/24 12:17:06;;;;;;;25.17;6.10;;;9.00;99.90;;;;;;5055542;28;20185;-89
2022/12/24 12:19:52;;;;;;;21.70;5.35;;;9.10;99.90;;;;;;4978608;28;20207;-88
2022/12/24 12:22:34;;;;;;;21.35;5.28;;;9.20;99.90;;;;;;4978978;28;20227;-88
2022/12/24 12:25:03;;;;;;;23.60;5.65;;;9.10;99.90;;;;;;5046612;28;20182;-88
2022/12/24 12:27:44;;;;;;;25.90;6.10;;;9.10;99.90;;;;;;5035056;28;20182;-88
2022/12/24 12:30:16;;;;;;;21.60;5.57;;;9.00;99.90;;;;;;5035544;28;20170;-90
2022/12/24 12:33:23;;;;;;;19.33;5.25;;;9.00;99.90;;;;;;5035417;28;20178;-89
2022/12/24 12:35:49;;;;;;;24.70;5.13;;;9.10;99.90;;;;;;5003229;28;20815;-89
2022/12/24 12:38:30;;;;;;;24.17;5.72;;;9.20;99.90;;;;;;5035363;28;20256;-90
2022/12/24 12:41:17;;;;;;;22.10;6.32;;;9.30;99.90;;;;;;5035474;28;20174;-91
2022/12/24 12:43:57;;;;;;;18.15;5.75;;;9.30;99.90;;;;;;5035297;28;20182;-89
2022/12/24 12:46:51;;;;;;;22.05;5.35;;;9.40;99.90;;;;;;5035275;28;20181;-89
2022/12/24 12:49:50;;;;;;;16.92;5.95;;;9.30;99.90;;;;;;5051157;28;20181;-91
2022/12/24 12:52:51;;;;;;;17.05;5.40;;;9.30;99.90;;;;;;5055078;28;20170;-90
2022/12/24 12:55:45;;;;;;;20.55;5.30;;;9.30;99.90;;;;;;5044404;28;20181;-89
2022/12/24 12:58:46;;;;;;;25.00;5.40;;;9.30;99.90;;;;;;5055084;28;20208;-90
2022/12/24 13:01:14;;;;;;;18.38;4.47;;;9.30;99.90;;;;;;5024570;28;20185;-89
2022/12/24 13:04:05;;;;;;;19.27;4.93;;;9.40;99.90;;;;;;5054575;28;20177;-90
2022/12/24 13:06:50;;;;;;;19.75;4.93;;;9.40;99.90;;;;;;5054775;28;20166;-89
2022/12/24 13:09:28;;;;;;;17.05;3.83;;;9.30;99.90;;;;;;5055749;28;20497;-89
2022/12/24 13:12:09;;;;;;;18.48;4.03;;;9.40;99.90;;;;;;5054814;28;20180;-88
2022/12/24 13:14:57;;;;;;;14.30;3.47;;;9.50;99.90;;;;;;5054489;28;20268;-89
2022/12/24 13:17:51;;;;;;;15.68;3.90;;;9.50;99.90;;;;;;5054348;28;20204;-88
2022/12/24 13:20:32;;;;;;;13.27;3.15;;;9.60;99.90;;;;;;5034658;28;20167;-89
2022/12/24 13:23:13;;;;;;;11.73;2.97;;;9.60;99.90;;;;;;5033616;28;20309;-89
2022/12/24 13:25:51;;;;;;;12.95;3.20;;;9.60;99.90;;;;;;5034385;28;20273;-89